sensor_id;sensor_type;location;lat;lon;timestamp;pressure;altitude;pressure_sealevel;temperature;humidity
21236;BME280;10775;42.678;26.324;2022-08-18T00:00:53;98097.53;;;26.34;52.67
21236;BME280;10775;42.678;26.324;2022-08-18T00:03:19;98102.72;;;26.45;54.63
21236;BME280;10775;42.678;26.324;2022-08-18T00:05:45;98106.53;;;26.43;58.05
21236;BME280;10775;42.678;26.324;2022-08-18T00:08:10;98097.31;;;26.75;59.77
21236;BME280;10775;42.678;26.324;2022-08-18T00:10:39;98088.91;;;26.97;55.35
21236;BME280;10775;42.678;26.324;2022-08-18T00:13:06;98096.97;;;26.87;59.40
21236;BME280;10775;42.678;26.324;2022-08-18T00:15:32;98095.94;;;26.61;51.49
21236;BME280;10775;42.678;26.324;2022-08-18T00:17:57;98094.00;;;26.43;53.58
21236;BME280;10775;42.678;26.324;2022-08-18T00:20:24;98104.25;;;26.67;51.27
21236;BME280;10775;42.678;26.324;2022-08-18T00:22:50;98098.75;;;26.69;50.67
21236;BME280;10775;42.678;26.324;2022-08-18T00:25:18;98109.56;;;26.77;50.17
21236;BME280;10775;42.678;26.324;2022-08-18T00:27:44;98100.50;;;26.41;52.47
21236;BME280;10775;42.678;26.324;2022-08-18T00:30:18;98108.41;;;26.89;57.30
21236;BME280;10775;42.678;26.324;2022-08-18T00:32:48;98109.94;;;26.92;49.22
21236;BME280;10775;42.678;26.324;2022-08-18T00:35:26;98104.34;;;26.76;48.82
21236;BME280;10775;42.678;26.324;2022-08-18T00:37:53;98112.22;;;27.15;57.32
21236;BME280;10775;42.678;26.324;2022-08-18T00:40:23;98106.53;;;27.27;49.51
21236;BME280;10775;42.678;26.324;2022-08-18T00:42:54;98117.25;;;27.00;48.36
21236;BME280;10775;42.678;26.324;2022-08-18T00:45:30;98114.13;;;27.32;58.24
21236;BME280;10775;42.678;26.324;2022-08-18T00:47:57;98114.09;;;27.42;55.19
21236;BME280;10775;42.678;26.324;2022-08-18T00:50:34;98114.22;;;27.40;57.59
21236;BME280;10775;42.678;26.324;2022-08-18T00:53:08;98107.47;;;27.08;51.26
21236;BME280;10775;42.678;26.324;2022-08-18T00:55:35;98113.53;;;26.73;55.81
21236;BME280;10775;42.678;26.324;2022-08-18T00:58:07;98110.09;;;26.91;50.99
21236;BME280;10775;42.678;26.324;2022-08-18T01:00:34;98121.84;;;26.80;58.37
21236;BME280;10775;42.678;26.324;2022-08-18T01:03:04;98112.16;;;26.97;49.15
21236;BME280;10775;42.678;26.324;2022-08-18T01:05:38;98116.34;;;27.19;57.87
21236;BME280;10775;42.678;26.324;2022-08-18T01:08:11;98118.00;;;27.20;58.67
21236;BME280;10775;42.678;26.324;2022-08-18T01:10:39;98111.16;;;26.70;53.64
21236;BME280;10775;42.678;26.324;2022-08-18T01:13:06;98120.69;;;26.92;50.84
21236;BME280;10775;42.678;26.324;2022-08-18T01:15:32;98109.53;;;27.15;59.29
21236;BME280;10775;42.678;26.324;2022-08-18T01:18:00;98113.34;;;27.12;52.21
21236;BME280;10775;42.678;26.324;2022-08-18T01:21:10;98117.31;;;26.80;52.14
21236;BME280;10775;42.678;26.324;2022-08-18T01:23:57;98115.03;;;26.85;57.05
21236;BME280;10775;42.678;26.324;2022-08-18T01:26:25;98131.16;;;27.13;58.29
21236;BME280;10775;42.678;26.324;2022-08-18T01:28:51;98119.91;;;26.72;58.38
21236;BME280;10775;42.678;26.324;2022-08-18T01:31:31;98127.03;;;26.81;59.12
21236;BME280;10775;42.678;26.324;2022-08-18T01:33:59;98127.97;;;27.00;59.67
21236;BME280;10775;42.678;26.324;2022-08-18T01:36:26;98124.72;;;26.96;55.58
21236;BME280;10775;42.678;26.324;2022-08-18T01:38:52;98126.09;;;27.10;59.23
21236;BME280;10775;42.678;26.324;2022-08-18T01:41:20;98131.00;;;26.87;58.59
21236;BME280;10775;42.678;26.324;2022-08-18T01:43:46;98132.88;;;26.77;55.13
21236;BME280;10775;42.678;26.324;2022-08-18T01:46:13;98125.00;;;26.56;49.79
21236;BME280;10775;42.678;26.324;2022-08-18T01:48:42;98125.97;;;27.02;58.82
21236;BME280;10775;42.678;26.324;2022-08-18T01:51:09;98131.22;;;26.27;51.44
21236;BME280;10775;42.678;26.324;2022-08-18T01:53:37;98127.75;;;26.83;59.83
21236;BME280;10775;42.678;26.324;2022-08-18T01:56:03;98121.59;;;26.63;55.56
21236;BME280;10775;42.678;26.324;2022-08-18T01:58:31;98128.59;;;26.84;59.71
21236;BME280;10775;42.678;26.324;2022-08-18T02:00:58;98128.97;;;26.22;56.32
21236;BME280;10775;42.678;26.324;2022-08-18T02:03:35;98121.63;;;26.44;60.62
21236;BME280;10775;42.678;26.324;2022-08-18T02:06:04;98125.34;;;26.23;53.69
21236;BME280;10775;42.678;26.324;2022-08-18T02:08:30;98119.38;;;26.49;57.63
21236;BME280;10775;42.678;26.324;2022-08-18T02:10:56;98128.44;;;25.99;60.06
21236;BME280;10775;42.678;26.324;2022-08-18T02:13:24;98129.81;;;25.84;53.24
21236;BME280;10775;42.678;26.324;2022-08-18T02:15:50;98127.53;;;26.48;60.51
21236;BME280;10775;42.678;26.324;2022-08-18T02:18:18;98129.56;;;26.16;56.57
21236;BME280;10775;42.678;26.324;2022-08-18T02:20:44;98124.59;;;25.83;56.38
21236;BME280;10775;42.678;26.324;2022-08-18T02:23:10;98129.25;;;26.49;53.53
21236;BME280;10775;42.678;26.324;2022-08-18T02:25:35;98125.56;;;26.59;58.17
21236;BME280;10775;42.678;26.324;2022-08-18T02:28:02;98125.38;;;26.71;59.21
21236;BME280;10775;42.678;26.324;2022-08-18T02:30:28;98124.28;;;26.63;58.18
21236;BME280;10775;42.678;26.324;2022-08-18T02:32:53;98128.09;;;26.61;59.60
21236;BME280;10775;42.678;26.324;2022-08-18T02:35:21;98128.88;;;26.81;59.54
21236;BME280;10775;42.678;26.324;2022-08-18T02:37:46;98135.75;;;26.36;52.70
21236;BME280;10775;42.678;26.324;2022-08-18T02:40:13;98139.56;;;25.95;60.23
21236;BME280;10775;42.678;26.324;2022-08-18T02:42:40;98125.31;;;26.33;61.24
21236;BME280;10775;42.678;26.324;2022-08-18T02:45:06;98123.72;;;26.40;49.61
21236;BME280;10775;42.678;26.324;2022-08-18T02:47:32;98129.38;;;26.57;58.04
21236;BME280;10775;42.678;26.324;2022-08-18T02:49:58;98128.56;;;26.37;51.13
21236;BME280;10775;42.678;26.324;2022-08-18T02:52:24;98130.66;;;26.53;56.41
21236;BME280;10775;42.678;26.324;2022-08-18T02:54:59;98130.34;;;26.65;58.25
21236;BME280;10775;42.678;26.324;2022-08-18T02:57:26;98131.06;;;26.58;57.26
21236;BME280;10775;42.678;26.324;2022-08-18T02:59:52;98134.63;;;26.29;50.84
21236;BME280;10775;42.678;26.324;2022-08-18T03:02:18;98126.69;;;26.66;54.34
21236;BME280;10775;42.678;26.324;2022-08-18T03:04:45;98138.97;;;26.69;57.99
21236;BME280;10775;42.678;26.324;2022-08-18T03:07:11;98131.47;;;26.63;59.72
21236;BME280;10775;42.678;26.324;2022-08-18T03:09:39;98130.84;;;25.93;54.72
21236;BME280;10775;42.678;26.324;2022-08-18T03:12:06;98137.84;;;26.42;60.55
21236;BME280;10775;42.678;26.324;2022-08-18T03:14:32;98136.88;;;26.43;60.81
21236;BME280;10775;42.678;26.324;2022-08-18T03:16:58;98131.22;;;26.46;60.68
21236;BME280;10775;42.678;26.324;2022-08-18T03:19:26;98135.47;;;26.30;60.62
21236;BME280;10775;42.678;26.324;2022-08-18T03:21:52;98129.50;;;26.45;59.54
21236;BME280;10775;42.678;26.324;2022-08-18T03:24:20;98132.50;;;26.52;60.57
21236;BME280;10775;42.678;26.324;2022-08-18T03:26:46;98125.56;;;26.50;60.71
21236;BME280;10775;42.678;26.324;2022-08-18T03:29:12;98129.53;;;26.55;60.71
21236;BME280;10775;42.678;26.324;2022-08-18T03:31:38;98126.09;;;26.73;60.21
21236;BME280;10775;42.678;26.324;2022-08-18T03:34:06;98126.38;;;26.70;60.16
21236;BME280;10775;42.678;26.324;2022-08-18T03:36:33;98126.13;;;26.63;60.54
21236;BME280;10775;42.678;26.324;2022-08-18T03:39:05;98129.19;;;26.78;59.94
21236;BME280;10775;42.678;26.324;2022-08-18T03:41:31;98129.81;;;26.52;53.80
21236;BME280;10775;42.678;26.324;2022-08-18T03:43:57;98129.13;;;26.01;55.14
21236;BME280;10775;42.678;26.324;2022-08-18T03:46:23;98135.50;;;25.91;55.02
21236;BME280;10775;42.678;26.324;2022-08-18T03:48:49;98141.47;;;25.64;55.05
21236;BME280;10775;42.678;26.324;2022-08-18T03:51:20;98146.19;;;26.30;60.67
21236;BME280;10775;42.678;26.324;2022-08-18T03:53:47;98135.75;;;26.17;59.74
21236;BME280;10775;42.678;26.324;2022-08-18T03:56:18;98144.22;;;26.32;59.19
21236;BME280;10775;42.678;26.324;2022-08-18T03:58:50;98149.28;;;26.64;58.29
21236;BME280;10775;42.678;26.324;2022-08-18T04:01:19;98134.13;;;26.73;58.78
21236;BME280;10775;42.678;26.324;2022-08-18T04:03:47;98138.78;;;26.71;50.25
21236;BME280;10775;42.678;26.324;2022-08-18T04:06:19;98138.03;;;26.88;58.65
21236;BME280;10775;42.678;26.324;2022-08-18T04:08:45;98145.03;;;26.52;50.78
21236;BME280;10775;42.678;26.324;2022-08-18T04:11:11;98142.44;;;26.79;58.82
21236;BME280;10775;42.678;26.324;2022-08-18T04:13:40;98145.31;;;26.49;57.95
21236;BME280;10775;42.678;26.324;2022-08-18T04:16:06;98145.53;;;26.84;58.98
21236;BME280;10775;42.678;26.324;2022-08-18T04:18:32;98141.63;;;26.69;54.25
21236;BME280;10775;42.678;26.324;2022-08-18T04:21:02;98141.78;;;26.58;59.33
21236;BME280;10775;42.678;26.324;2022-08-18T04:23:29;98149.56;;;26.32;53.94
21236;BME280;10775;42.678;26.324;2022-08-18T04:25:56;98144.22;;;26.02;58.87
21236;BME280;10775;42.678;26.324;2022-08-18T04:28:22;98148.16;;;26.18;58.76
21236;BME280;10775;42.678;26.324;2022-08-18T04:30:48;98149.81;;;26.58;53.28
21236;BME280;10775;42.678;26.324;2022-08-18T04:33:13;98150.66;;;26.68;52.15
21236;BME280;10775;42.678;26.324;2022-08-18T04:35:39;98153.94;;;26.52;51.68
21236;BME280;10775;42.678;26.324;2022-08-18T04:38:05;98155.31;;;26.66;56.83
21236;BME280;10775;42.678;26.324;2022-08-18T04:40:31;98158.44;;;26.42;52.33
21236;BME280;10775;42.678;26.324;2022-08-18T04:42:58;98163.94;;;26.60;58.49
21236;BME280;10775;42.678;26.324;2022-08-18T04:45:26;98157.16;;;26.65;53.33
21236;BME280;10775;42.678;26.324;2022-08-18T04:47:52;98165.91;;;26.58;52.03
21236;BME280;10775;42.678;26.324;2022-08-18T04:50:18;98163.63;;;26.63;51.21
21236;BME280;10775;42.678;26.324;2022-08-18T04:52:44;98161.56;;;26.94;57.92
21236;BME280;10775;42.678;26.324;2022-08-18T04:55:28;98171.97;;;27.07;51.64
21236;BME280;10775;42.678;26.324;2022-08-18T04:57:54;98170.41;;;26.77;54.75
21236;BME280;10775;42.678;26.324;2022-08-18T05:00:20;98173.44;;;26.92;52.20
21236;BME280;10775;42.678;26.324;2022-08-18T05:02:46;98171.16;;;26.97;57.74
21236;BME280;10775;42.678;26.324;2022-08-18T05:05:13;98173.50;;;26.72;52.95
21236;BME280;10775;42.678;26.324;2022-08-18T05:07:43;98174.72;;;26.97;55.86
21236;BME280;10775;42.678;26.324;2022-08-18T05:10:09;98172.84;;;27.07;55.51
21236;BME280;10775;42.678;26.324;2022-08-18T05:12:37;98174.06;;;27.23;53.76
21236;BME280;10775;42.678;26.324;2022-08-18T05:15:06;98169.41;;;27.15;53.83
21236;BME280;10775;42.678;26.324;2022-08-18T05:17:36;98174.78;;;27.15;51.48
21236;BME280;10775;42.678;26.324;2022-08-18T05:20:08;98180.81;;;27.27;53.93
21236;BME280;10775;42.678;26.324;2022-08-18T05:22:41;98185.94;;;27.20;54.77
21236;BME280;10775;42.678;26.324;2022-08-18T05:25:10;98185.47;;;27.25;52.53
21236;BME280;10775;42.678;26.324;2022-08-18T05:27:38;98188.47;;;27.22;53.46
21236;BME280;10775;42.678;26.324;2022-08-18T05:30:05;98195.47;;;27.32;53.21
21236;BME280;10775;42.678;26.324;2022-08-18T05:32:44;98185.25;;;27.18;51.27
21236;BME280;10775;42.678;26.324;2022-08-18T05:35:14;98180.25;;;27.33;55.88
21236;BME280;10775;42.678;26.324;2022-08-18T05:40:19;98191.31;;;27.20;50.03
21236;BME280;10775;42.678;26.324;2022-08-18T05:42:48;98188.13;;;27.35;54.49
21236;BME280;10775;42.678;26.324;2022-08-18T05:45:16;98186.50;;;27.51;55.29
21236;BME280;10775;42.678;26.324;2022-08-18T05:47:43;98187.03;;;27.55;56.22
21236;BME280;10775;42.678;26.324;2022-08-18T05:50:17;98188.56;;;27.58;53.57
21236;BME280;10775;42.678;26.324;2022-08-18T05:53:07;98178.19;;;27.45;49.60
21236;BME280;10775;42.678;26.324;2022-08-18T05:55:38;98186.84;;;27.39;49.43
21236;BME280;10775;42.678;26.324;2022-08-18T05:58:45;98183.72;;;27.43;49.09
21236;BME280;10775;42.678;26.324;2022-08-18T06:01:30;98177.22;;;27.46;49.12
21236;BME280;10775;42.678;26.324;2022-08-18T06:04:05;98177.75;;;27.49;51.39
21236;BME280;10775;42.678;26.324;2022-08-18T06:06:34;98172.63;;;27.56;49.90
21236;BME280;10775;42.678;26.324;2022-08-18T06:09:19;98177.53;;;27.61;48.27
21236;BME280;10775;42.678;26.324;2022-08-18T06:11:47;98176.25;;;27.65;49.15
21236;BME280;10775;42.678;26.324;2022-08-18T06:14:13;98188.91;;;27.72;49.85
21236;BME280;10775;42.678;26.324;2022-08-18T06:27:43;98186.28;;;27.90;50.36
21236;BME280;10775;42.678;26.324;2022-08-18T06:30:27;98203.53;;;27.88;48.81
21236;BME280;10775;42.678;26.324;2022-08-18T06:33:11;98195.47;;;27.88;50.19
21236;BME280;10775;42.678;26.324;2022-08-18T06:35:50;98202.00;;;27.85;51.25
21236;BME280;10775;42.678;26.324;2022-08-18T06:43:37;98206.31;;;28.50;48.68
21236;BME280;10775;42.678;26.324;2022-08-18T06:46:17;98210.00;;;28.67;48.99
21236;BME280;10775;42.678;26.324;2022-08-18T06:48:55;98210.75;;;28.77;47.89
21236;BME280;10775;42.678;26.324;2022-08-18T06:51:26;98207.25;;;29.37;46.79
21236;BME280;10775;42.678;26.324;2022-08-18T06:54:05;98209.97;;;29.45;45.20
21236;BME280;10775;42.678;26.324;2022-08-18T06:56:44;98207.31;;;29.53;44.20
21236;BME280;10775;42.678;26.324;2022-08-18T06:59:18;98204.34;;;30.56;44.04
21236;BME280;10775;42.678;26.324;2022-08-18T07:01:46;98196.88;;;31.63;39.74
21236;BME280;10775;42.678;26.324;2022-08-18T07:04:42;98201.19;;;31.41;39.90
21236;BME280;10775;42.678;26.324;2022-08-18T07:07:36;98200.16;;;31.50;38.11
21236;BME280;10775;42.678;26.324;2022-08-18T07:10:32;98206.09;;;31.77;36.24
21236;BME280;10775;42.678;26.324;2022-08-18T07:13:26;98206.88;;;32.48;37.91
21236;BME280;10775;42.678;26.324;2022-08-18T07:15:55;98202.47;;;32.85;37.10
21236;BME280;10775;42.678;26.324;2022-08-18T07:18:26;98215.66;;;32.50;38.30
21236;BME280;10775;42.678;26.324;2022-08-18T07:21:00;98207.88;;;32.85;38.13
21236;BME280;10775;42.678;26.324;2022-08-18T07:23:38;98197.94;;;33.45;36.05
21236;BME280;10775;42.678;26.324;2022-08-18T07:26:11;98205.91;;;33.61;36.03
21236;BME280;10775;42.678;26.324;2022-08-18T07:28:39;98198.50;;;32.96;38.33
21236;BME280;10775;42.678;26.324;2022-08-18T07:33:47;98194.47;;;32.91;37.35
21236;BME280;10775;42.678;26.324;2022-08-18T07:36:15;98204.03;;;32.79;37.30
21236;BME280;10775;42.678;26.324;2022-08-18T07:38:47;98197.59;;;32.65;37.15
21236;BME280;10775;42.678;26.324;2022-08-18T07:41:22;98201.91;;;32.89;37.12
21236;BME280;10775;42.678;26.324;2022-08-18T07:47:07;98193.19;;;33.47;36.05
21236;BME280;10775;42.678;26.324;2022-08-18T07:49:38;98197.97;;;33.60;35.71
21236;BME280;10775;42.678;26.324;2022-08-18T07:52:29;98203.34;;;33.74;36.45
21236;BME280;10775;42.678;26.324;2022-08-18T07:55:15;98195.91;;;33.47;35.16
21236;BME280;10775;42.678;26.324;2022-08-18T07:58:17;98205.94;;;32.94;38.17
21236;BME280;10775;42.678;26.324;2022-08-18T08:01:01;98200.19;;;33.71;34.94
21236;BME280;10775;42.678;26.324;2022-08-18T08:03:58;98200.47;;;33.97;34.81
21236;BME280;10775;42.678;26.324;2022-08-18T08:06:44;98187.72;;;34.77;33.42
21236;BME280;10775;42.678;26.324;2022-08-18T08:09:30;98191.81;;;34.67;33.95
21236;BME280;10775;42.678;26.324;2022-08-18T08:12:03;98198.78;;;34.33;33.63
21236;BME280;10775;42.678;26.324;2022-08-18T08:14:45;98193.28;;;34.48;34.28
21236;BME280;10775;42.678;26.324;2022-08-18T08:20:11;98188.63;;;33.98;37.45
21236;BME280;10775;42.678;26.324;2022-08-18T08:34:17;98182.31;;;32.73;36.38
21236;BME280;10775;42.678;26.324;2022-08-18T08:36:45;98193.13;;;33.55;35.49
21236;BME280;10775;42.678;26.324;2022-08-18T08:39:25;98187.00;;;32.94;35.14
21236;BME280;10775;42.678;26.324;2022-08-18T08:41:56;98183.06;;;32.81;35.15
21236;BME280;10775;42.678;26.324;2022-08-18T08:44:34;98174.81;;;32.75;35.84
21236;BME280;10775;42.678;26.324;2022-08-18T08:47:25;98194.03;;;33.62;34.74
21236;BME280;10775;42.678;26.324;2022-08-18T08:50:06;98189.66;;;33.17;35.52
21236;BME280;10775;42.678;26.324;2022-08-18T08:52:38;98188.47;;;33.85;34.21
21236;BME280;10775;42.678;26.324;2022-08-18T08:55:36;98182.28;;;33.55;33.79
21236;BME280;10775;42.678;26.324;2022-08-18T09:00:56;98187.47;;;34.51;33.56
21236;BME280;10775;42.678;26.324;2022-08-18T09:09:38;98182.63;;;34.03;33.60
21236;BME280;10775;42.678;26.324;2022-08-18T09:20:06;98174.72;;;33.87;33.17
21236;BME280;10775;42.678;26.324;2022-08-18T09:25:28;98167.63;;;33.86;33.41
21236;BME280;10775;42.678;26.324;2022-08-18T09:28:21;98174.22;;;33.62;34.56
21236;BME280;10775;42.678;26.324;2022-08-18T09:36:38;98174.47;;;33.67;34.17
21236;BME280;10775;42.678;26.324;2022-08-18T09:45:03;98163.44;;;33.83;34.90
21236;BME280;10775;42.678;26.324;2022-08-18T10:04:25;98165.06;;;33.99;32.09
21236;BME280;10775;42.678;26.324;2022-08-18T10:06:49;98170.50;;;34.20;32.59
21236;BME280;10775;42.678;26.324;2022-08-18T10:12:17;98167.78;;;33.63;32.29
21236;BME280;10775;42.678;26.324;2022-08-18T10:15:07;98166.53;;;32.76;33.80
21236;BME280;10775;42.678;26.324;2022-08-18T10:22:46;98176.72;;;32.89;33.16
21236;BME280;10775;42.678;26.324;2022-08-18T10:25:13;98181.28;;;32.74;32.89
21236;BME280;10775;42.678;26.324;2022-08-18T10:27:54;98177.28;;;33.44;31.98
21236;BME280;10775;42.678;26.324;2022-08-18T10:32:52;98167.19;;;32.78;32.84
21236;BME280;10775;42.678;26.324;2022-08-18T10:35:55;98161.44;;;32.96;33.27
21236;BME280;10775;42.678;26.324;2022-08-18T10:38:25;98163.66;;;32.92;31.79
21236;BME280;10775;42.678;26.324;2022-08-18T10:41:23;98175.13;;;32.42;31.93
21236;BME280;10775;42.678;26.324;2022-08-18T10:43:51;98164.50;;;32.78;32.33
21236;BME280;10775;42.678;26.324;2022-08-18T10:46:24;98165.31;;;32.79;33.09
21236;BME280;10775;42.678;26.324;2022-08-18T10:49:18;98160.69;;;33.02;31.74
21236;BME280;10775;42.678;26.324;2022-08-18T10:54:24;98158.72;;;32.96;32.21
21236;BME280;10775;42.678;26.324;2022-08-18T10:57:11;98156.69;;;32.98;31.60
21236;BME280;10775;42.678;26.324;2022-08-18T10:59:47;98165.72;;;32.90;31.43
21236;BME280;10775;42.678;26.324;2022-08-18T11:02:52;98163.25;;;33.19;32.60
21236;BME280;10775;42.678;26.324;2022-08-18T11:05:24;98156.34;;;33.16;32.02
21236;BME280;10775;42.678;26.324;2022-08-18T11:08:03;98144.25;;;33.85;32.22
21236;BME280;10775;42.678;26.324;2022-08-18T11:13:29;98130.50;;;33.50;33.13
21236;BME280;10775;42.678;26.324;2022-08-18T11:18:43;98139.59;;;34.15;31.94
21236;BME280;10775;42.678;26.324;2022-08-18T11:26:55;98135.97;;;34.08;31.79
21236;BME280;10775;42.678;26.324;2022-08-18T11:29:35;98145.91;;;33.64;32.58
21236;BME280;10775;42.678;26.324;2022-08-18T11:39:50;98135.63;;;33.96;32.58
21236;BME280;10775;42.678;26.324;2022-08-18T11:42:19;98140.16;;;34.10;31.97
21236;BME280;10775;42.678;26.324;2022-08-18T11:44:53;98141.63;;;33.40;32.20
21236;BME280;10775;42.678;26.324;2022-08-18T11:47:21;98138.38;;;33.45;32.35
21236;BME280;10775;42.678;26.324;2022-08-18T11:50:08;98129.88;;;33.33;32.96
21236;BME280;10775;42.678;26.324;2022-08-18T11:52:55;98123.75;;;33.75;32.39
21236;BME280;10775;42.678;26.324;2022-08-18T11:55:31;98117.50;;;33.75;30.46
21236;BME280;10775;42.678;26.324;2022-08-18T11:58:00;98118.63;;;33.66;32.70
21236;BME280;10775;42.678;26.324;2022-08-18T12:03:03;98105.34;;;33.71;32.32
21236;BME280;10775;42.678;26.324;2022-08-18T12:05:49;98108.19;;;33.48;33.15
21236;BME280;10775;42.678;26.324;2022-08-18T12:08:34;98109.59;;;33.44;31.70
21236;BME280;10775;42.678;26.324;2022-08-18T12:11:19;98097.84;;;33.37;32.27
21236;BME280;10775;42.678;26.324;2022-08-18T12:13:48;98098.38;;;33.47;32.34
21236;BME280;10775;42.678;26.324;2022-08-18T12:16:40;98095.72;;;33.90;32.15
21236;BME280;10775;42.678;26.324;2022-08-18T12:19:09;98102.94;;;34.47;32.13
21236;BME280;10775;42.678;26.324;2022-08-18T12:21:44;98089.22;;;34.55;31.71
21236;BME280;10775;42.678;26.324;2022-08-18T12:26:47;98091.72;;;33.64;33.07
21236;BME280;10775;42.678;26.324;2022-08-18T12:29:13;98092.22;;;34.11;32.88
21236;BME280;10775;42.678;26.324;2022-08-18T12:31:39;98100.00;;;34.20;32.63
21236;BME280;10775;42.678;26.324;2022-08-18T12:34:04;98103.84;;;33.68;32.93
21236;BME280;10775;42.678;26.324;2022-08-18T12:36:31;98103.47;;;34.36;32.50
21236;BME280;10775;42.678;26.324;2022-08-18T12:38:57;98092.44;;;33.73;32.89
21236;BME280;10775;42.678;26.324;2022-08-18T12:41:23;98098.19;;;33.48;32.69
21236;BME280;10775;42.678;26.324;2022-08-18T12:43:48;98090.38;;;33.75;33.29
21236;BME280;10775;42.678;26.324;2022-08-18T12:46:14;98084.94;;;33.39;33.42
21236;BME280;10775;42.678;26.324;2022-08-18T12:48:40;98087.53;;;33.83;32.78
21236;BME280;10775;42.678;26.324;2022-08-18T12:51:06;98089.69;;;34.09;31.30
21236;BME280;10775;42.678;26.324;2022-08-18T12:53:32;98094.72;;;34.12;31.98
21236;BME280;10775;42.678;26.324;2022-08-18T12:55:59;98088.97;;;34.50;30.51
21236;BME280;10775;42.678;26.324;2022-08-18T12:58:25;98080.22;;;34.05;32.07
21236;BME280;10775;42.678;26.324;2022-08-18T13:00:51;98077.19;;;34.08;31.88
21236;BME280;10775;42.678;26.324;2022-08-18T13:03:17;98077.66;;;33.97;32.33
21236;BME280;10775;42.678;26.324;2022-08-18T13:05:44;98086.03;;;33.59;31.70
21236;BME280;10775;42.678;26.324;2022-08-18T13:08:16;98079.03;;;33.65;31.52
21236;BME280;10775;42.678;26.324;2022-08-18T13:10:43;98079.34;;;33.55;31.77
21236;BME280;10775;42.678;26.324;2022-08-18T13:13:09;98068.63;;;33.90;32.44
21236;BME280;10775;42.678;26.324;2022-08-18T13:15:35;98084.13;;;33.96;32.65
21236;BME280;10775;42.678;26.324;2022-08-18T13:18:01;98079.34;;;33.76;31.50
21236;BME280;10775;42.678;26.324;2022-08-18T13:20:27;98096.31;;;33.85;31.64
21236;BME280;10775;42.678;26.324;2022-08-18T13:22:53;98083.75;;;33.77;31.16
21236;BME280;10775;42.678;26.324;2022-08-18T13:25:20;98085.53;;;33.70;32.54
21236;BME280;10775;42.678;26.324;2022-08-18T13:27:45;98087.09;;;34.01;30.46
21236;BME280;10775;42.678;26.324;2022-08-18T13:30:15;98080.63;;;33.81;29.80
21236;BME280;10775;42.678;26.324;2022-08-18T13:32:40;98085.00;;;33.82;30.39
21236;BME280;10775;42.678;26.324;2022-08-18T13:35:07;98075.72;;;33.91;31.12
21236;BME280;10775;42.678;26.324;2022-08-18T13:37:33;98083.91;;;33.97;30.54
21236;BME280;10775;42.678;26.324;2022-08-18T13:40:00;98074.50;;;33.93;30.85
21236;BME280;10775;42.678;26.324;2022-08-18T13:42:26;98081.38;;;34.39;30.34
21236;BME280;10775;42.678;26.324;2022-08-18T13:44:54;98080.44;;;34.25;30.68
21236;BME280;10775;42.678;26.324;2022-08-18T13:47:22;98087.16;;;33.50;32.87
21236;BME280;10775;42.678;26.324;2022-08-18T13:49:49;98085.00;;;33.82;31.28
21236;BME280;10775;42.678;26.324;2022-08-18T13:52:15;98077.50;;;34.05;31.18
21236;BME280;10775;42.678;26.324;2022-08-18T13:54:41;98073.22;;;33.53;32.13
21236;BME280;10775;42.678;26.324;2022-08-18T13:57:10;98080.38;;;33.75;33.95
21236;BME280;10775;42.678;26.324;2022-08-18T13:59:36;98074.31;;;33.73;31.93
21236;BME280;10775;42.678;26.324;2022-08-18T14:02:06;98074.75;;;33.77;31.99
21236;BME280;10775;42.678;26.324;2022-08-18T14:04:33;98074.56;;;33.57;32.18
21236;BME280;10775;42.678;26.324;2022-08-18T14:07:00;98074.19;;;33.82;32.25
21236;BME280;10775;42.678;26.324;2022-08-18T14:09:27;98067.88;;;33.96;32.68
21236;BME280;10775;42.678;26.324;2022-08-18T14:11:53;98071.56;;;34.38;32.11
21236;BME280;10775;42.678;26.324;2022-08-18T14:14:20;98070.53;;;34.39;32.18
21236;BME280;10775;42.678;26.324;2022-08-18T14:16:46;98079.75;;;34.16;32.12
21236;BME280;10775;42.678;26.324;2022-08-18T14:19:12;98077.03;;;34.16;31.91
21236;BME280;10775;42.678;26.324;2022-08-18T14:21:56;98076.44;;;33.78;33.18
21236;BME280;10775;42.678;26.324;2022-08-18T14:24:41;98079.19;;;33.85;33.16
21236;BME280;10775;42.678;26.324;2022-08-18T14:27:31;98075.22;;;33.44;34.38
21236;BME280;10775;42.678;26.324;2022-08-18T14:30:00;98069.06;;;33.35;33.20
21236;BME280;10775;42.678;26.324;2022-08-18T14:32:27;98070.94;;;33.71;33.60
21236;BME280;10775;42.678;26.324;2022-08-18T14:34:56;98075.72;;;33.69;33.10
21236;BME280;10775;42.678;26.324;2022-08-18T14:37:22;98066.88;;;33.82;32.90
21236;BME280;10775;42.678;26.324;2022-08-18T14:39:49;98075.66;;;33.84;33.53
21236;BME280;10775;42.678;26.324;2022-08-18T14:42:16;98064.94;;;33.97;33.61
21236;BME280;10775;42.678;26.324;2022-08-18T14:44:47;98061.66;;;34.24;33.02
21236;BME280;10775;42.678;26.324;2022-08-18T14:47:13;98061.16;;;34.13;32.82
21236;BME280;10775;42.678;26.324;2022-08-18T14:49:39;98064.81;;;34.06;32.56
21236;BME280;10775;42.678;26.324;2022-08-18T14:52:06;98063.59;;;33.65;32.77
21236;BME280;10775;42.678;26.324;2022-08-18T14:54:32;98067.50;;;33.77;32.40
21236;BME280;10775;42.678;26.324;2022-08-18T14:56:59;98069.41;;;33.62;32.32
21236;BME280;10775;42.678;26.324;2022-08-18T14:59:27;98069.78;;;33.59;32.34
21236;BME280;10775;42.678;26.324;2022-08-18T15:01:53;98055.41;;;33.59;32.16
21236;BME280;10775;42.678;26.324;2022-08-18T15:04:20;98055.91;;;33.69;32.00
21236;BME280;10775;42.678;26.324;2022-08-18T15:06:49;98056.84;;;33.40;33.35
21236;BME280;10775;42.678;26.324;2022-08-18T15:09:15;98058.19;;;33.65;32.36
21236;BME280;10775;42.678;26.324;2022-08-18T15:11:41;98056.84;;;33.54;32.67
21236;BME280;10775;42.678;26.324;2022-08-18T15:14:06;98049.13;;;33.22;37.25
21236;BME280;10775;42.678;26.324;2022-08-18T15:16:32;98047.66;;;33.19;32.56